Elmira, NY (14903)

2:09 PM EDT on May 24, 2015 (GMT -0400)
Harris Hill Gliderport | | Change Station
CLOSE
Current Station
Personal Weather Station
Location: National Soaring Museum, Elmira, NY
Elevation: 1710 ft
Nearby Weather Stations

Elev 1710 ft 42.12 °N, 76.90 °W | Updated 2 minutes ago

Clear
Clear
73.6 °F
Feels Like 76 °F
N
2.0
Wind Variable Wind from West
Gusts 12.0 mph

Today
High -- | Low -- °F
--% Chance of Precip.
Yesterday
High -- | Low -- °F
Precip. -- in
5:39 AM 8:30 PM
Waxing Crescent, 41% visible
Pressure 30.26 in
Visibility 10.0 miles
Clouds Clear
Heat Index 76 °F
Dew Point 36 °F
Humidity 25%
Rainfall 0.00 in
Snow Depth Not available.
UV 11 out of 12
Pollen 8.80 out of 12
Air Quality Not available.
Flu Activity Widespread
METAR KELM 241753Z VRB05KT 10SM CLR 26/03 A3026 RMK AO2 SLP245 T02560028 10261 20072 56015 $

More Conditions Fewer Conditions

Pressure 30.26 in
Visibility 10.0 miles
Clouds Clear
Heat Index 76 °F
Dew Point 36 °F
Humidity 25%
Rainfall 0.00 in
Snow Depth Not available.
UV 11 out of 12
Pollen 8.80 out of 12
Air Quality Not available.
Flu Activity Widespread
METAR KELM 241753Z VRB05KT 10SM CLR 26/03 A3026 RMK AO2 SLP245 T02560028 10261 20072 56015 $

More Conditions Fewer Conditions

10-Day Weather Forecast

Almanac

Astronomy

May. 24, 2015 Rise Set
Actual Time
Civil Twilight
Nautical Twilight
Astronomical Twilight
Moon
Length of Visible Light
Length of Day
Tomorrow will be .
, % of the Moon is Illuminated

Today's Extremes

State Highs State Lows

Community

WunderPhotos

Upload Photos

1,823,813 photos uploaded!

WunderBlogs® & News

Nearby

Air Quality

  Air Quality AQ Index Pollutant
Not available.

Snow Depth

Station Depth Elevation

Earthquake Activity

City Distance Mag. Time & Date
Minimum magnitude displayed is 2.5.

Coastal Water Temperatures

Place Temperature

Stations

Nearby Weather Stations

Station Location Temp. Windchill Dew Point Humidity Wind Precip. Elev Updated Type